sensor_id;sensor_type;location;lat;lon;timestamp;P1;durP1;ratioP1;P2;durP2;ratioP2
30539;SDS011;17321;46.312;4.776;2023-08-06T00:00:19;4.65;;;1.60;;
30539;SDS011;17321;46.312;4.776;2023-08-06T00:02:45;4.53;;;1.40;;
30539;SDS011;17321;46.312;4.776;2023-08-06T00:05:11;4.20;;;1.38;;
30539;SDS011;17321;46.312;4.776;2023-08-06T00:07:38;5.63;;;1.42;;
30539;SDS011;17321;46.312;4.776;2023-08-06T00:10:04;7.43;;;1.98;;
30539;SDS011;17321;46.312;4.776;2023-08-06T00:12:30;9.00;;;2.17;;
30539;SDS011;17321;46.312;4.776;2023-08-06T00:14:56;8.55;;;1.80;;
30539;SDS011;17321;46.312;4.776;2023-08-06T00:17:22;10.73;;;2.35;;
30539;SDS011;17321;46.312;4.776;2023-08-06T00:19:48;14.63;;;3.35;;
30539;SDS011;17321;46.312;4.776;2023-08-06T00:22:14;9.15;;;2.40;;
30539;SDS011;17321;46.312;4.776;2023-08-06T00:24:41;13.65;;;3.53;;
30539;SDS011;17321;46.312;4.776;2023-08-06T00:27:07;14.70;;;3.47;;
30539;SDS011;17321;46.312;4.776;2023-08-06T00:29:33;11.40;;;3.08;;
30539;SDS011;17321;46.312;4.776;2023-08-06T00:31:59;19.45;;;3.88;;
30539;SDS011;17321;46.312;4.776;2023-08-06T00:34:25;18.60;;;3.67;;
30539;SDS011;17321;46.312;4.776;2023-08-06T00:36:51;14.93;;;3.05;;
30539;SDS011;17321;46.312;4.776;2023-08-06T00:39:18;17.40;;;3.58;;
30539;SDS011;17321;46.312;4.776;2023-08-06T00:41:45;14.88;;;3.38;;
30539;SDS011;17321;46.312;4.776;2023-08-06T00:44:11;22.30;;;4.50;;
30539;SDS011;17321;46.312;4.776;2023-08-06T00:46:37;17.85;;;4.05;;
30539;SDS011;17321;46.312;4.776;2023-08-06T00:49:03;14.82;;;3.30;;
30539;SDS011;17321;46.312;4.776;2023-08-06T00:51:30;20.80;;;4.72;;
30539;SDS011;17321;46.312;4.776;2023-08-06T00:53:57;17.13;;;3.25;;
30539;SDS011;17321;46.312;4.776;2023-08-06T00:56:23;21.60;;;4.22;;
30539;SDS011;17321;46.312;4.776;2023-08-06T00:58:50;11.93;;;3.58;;
30539;SDS011;17321;46.312;4.776;2023-08-06T01:01:16;13.32;;;3.45;;
30539;SDS011;17321;46.312;4.776;2023-08-06T01:03:42;24.75;;;4.07;;
30539;SDS011;17321;46.312;4.776;2023-08-06T01:06:09;19.15;;;3.92;;
30539;SDS011;17321;46.312;4.776;2023-08-06T01:13:58;18.25;;;3.30;;
30539;SDS011;17321;46.312;4.776;2023-08-06T01:16:25;16.77;;;3.67;;
30539;SDS011;17321;46.312;4.776;2023-08-06T01:18:51;20.83;;;5.05;;
30539;SDS011;17321;46.312;4.776;2023-08-06T01:21:18;16.25;;;4.13;;
30539;SDS011;17321;46.312;4.776;2023-08-06T01:23:45;18.08;;;3.75;;
30539;SDS011;17321;46.312;4.776;2023-08-06T01:26:14;19.67;;;3.90;;
30539;SDS011;17321;46.312;4.776;2023-08-06T01:31:07;20.52;;;3.90;;
30539;SDS011;17321;46.312;4.776;2023-08-06T01:33:35;21.23;;;3.97;;
30539;SDS011;17321;46.312;4.776;2023-08-06T01:36:04;21.30;;;4.22;;
30539;SDS011;17321;46.312;4.776;2023-08-06T01:38:31;22.35;;;5.18;;
30539;SDS011;17321;46.312;4.776;2023-08-06T01:40:57;21.65;;;4.45;;
30539;SDS011;17321;46.312;4.776;2023-08-06T01:43:24;23.75;;;4.57;;
30539;SDS011;17321;46.312;4.776;2023-08-06T01:45:50;30.33;;;5.53;;
30539;SDS011;17321;46.312;4.776;2023-08-06T01:48:16;21.02;;;4.65;;
30539;SDS011;17321;46.312;4.776;2023-08-06T01:50:42;18.42;;;4.78;;
30539;SDS011;17321;46.312;4.776;2023-08-06T01:53:08;25.13;;;5.00;;
30539;SDS011;17321;46.312;4.776;2023-08-06T01:55:34;20.13;;;4.40;;
30539;SDS011;17321;46.312;4.776;2023-08-06T01:58:00;17.58;;;4.53;;
30539;SDS011;17321;46.312;4.776;2023-08-06T02:00:26;24.63;;;4.30;;
30539;SDS011;17321;46.312;4.776;2023-08-06T02:02:53;23.55;;;4.45;;
30539;SDS011;17321;46.312;4.776;2023-08-06T02:05:20;26.35;;;4.25;;
30539;SDS011;17321;46.312;4.776;2023-08-06T02:07:46;28.50;;;4.47;;
30539;SDS011;17321;46.312;4.776;2023-08-06T02:10:12;23.33;;;4.35;;
30539;SDS011;17321;46.312;4.776;2023-08-06T02:12:38;30.20;;;4.70;;
30539;SDS011;17321;46.312;4.776;2023-08-06T02:15:04;21.70;;;4.13;;
30539;SDS011;17321;46.312;4.776;2023-08-06T02:17:30;18.80;;;3.88;;
30539;SDS011;17321;46.312;4.776;2023-08-06T02:19:56;27.48;;;5.32;;
30539;SDS011;17321;46.312;4.776;2023-08-06T02:22:23;23.20;;;4.68;;
30539;SDS011;17321;46.312;4.776;2023-08-06T02:24:49;28.58;;;5.20;;
30539;SDS011;17321;46.312;4.776;2023-08-06T02:27:15;20.38;;;4.60;;
30539;SDS011;17321;46.312;4.776;2023-08-06T02:29:41;18.75;;;3.97;;
30539;SDS011;17321;46.312;4.776;2023-08-06T02:32:07;23.20;;;3.58;;
30539;SDS011;17321;46.312;4.776;2023-08-06T02:34:33;20.80;;;3.63;;
30539;SDS011;17321;46.312;4.776;2023-08-06T02:36:59;11.27;;;2.90;;
30539;SDS011;17321;46.312;4.776;2023-08-06T02:39:26;17.27;;;3.22;;
30539;SDS011;17321;46.312;4.776;2023-08-06T02:41:52;9.90;;;2.40;;
30539;SDS011;17321;46.312;4.776;2023-08-06T02:44:18;19.45;;;3.22;;
30539;SDS011;17321;46.312;4.776;2023-08-06T02:46:44;16.00;;;2.72;;
30539;SDS011;17321;46.312;4.776;2023-08-06T02:49:10;9.88;;;2.38;;
30539;SDS011;17321;46.312;4.776;2023-08-06T02:51:37;12.82;;;3.42;;
30539;SDS011;17321;46.312;4.776;2023-08-06T02:54:03;11.13;;;3.28;;
30539;SDS011;17321;46.312;4.776;2023-08-06T02:56:29;9.48;;;2.70;;
30539;SDS011;17321;46.312;4.776;2023-08-06T02:58:55;9.45;;;2.75;;
30539;SDS011;17321;46.312;4.776;2023-08-06T03:01:22;15.93;;;3.78;;
30539;SDS011;17321;46.312;4.776;2023-08-06T03:03:48;11.60;;;3.03;;
30539;SDS011;17321;46.312;4.776;2023-08-06T03:06:14;12.55;;;3.17;;
30539;SDS011;17321;46.312;4.776;2023-08-06T03:08:40;10.82;;;2.83;;
30539;SDS011;17321;46.312;4.776;2023-08-06T03:11:06;15.93;;;3.35;;
30539;SDS011;17321;46.312;4.776;2023-08-06T03:13:32;14.90;;;2.97;;
30539;SDS011;17321;46.312;4.776;2023-08-06T03:15:59;12.70;;;2.80;;
30539;SDS011;17321;46.312;4.776;2023-08-06T03:18:25;10.30;;;2.72;;
30539;SDS011;17321;46.312;4.776;2023-08-06T03:20:51;12.45;;;3.05;;
30539;SDS011;17321;46.312;4.776;2023-08-06T03:23:18;16.85;;;3.17;;
30539;SDS011;17321;46.312;4.776;2023-08-06T03:25:44;17.98;;;3.08;;
30539;SDS011;17321;46.312;4.776;2023-08-06T03:28:10;18.25;;;3.70;;
30539;SDS011;17321;46.312;4.776;2023-08-06T03:30:36;13.43;;;3.05;;
30539;SDS011;17321;46.312;4.776;2023-08-06T03:33:02;13.48;;;3.20;;
30539;SDS011;17321;46.312;4.776;2023-08-06T03:35:28;15.88;;;2.78;;
30539;SDS011;17321;46.312;4.776;2023-08-06T03:37:55;11.77;;;2.80;;
30539;SDS011;17321;46.312;4.776;2023-08-06T03:40:21;9.15;;;3.30;;
30539;SDS011;17321;46.312;4.776;2023-08-06T03:42:47;14.48;;;3.17;;
30539;SDS011;17321;46.312;4.776;2023-08-06T03:45:13;12.88;;;2.85;;
30539;SDS011;17321;46.312;4.776;2023-08-06T03:47:39;9.00;;;2.60;;
30539;SDS011;17321;46.312;4.776;2023-08-06T03:50:05;11.35;;;2.45;;
30539;SDS011;17321;46.312;4.776;2023-08-06T03:52:31;10.40;;;2.20;;
30539;SDS011;17321;46.312;4.776;2023-08-06T03:54:58;9.27;;;2.33;;
30539;SDS011;17321;46.312;4.776;2023-08-06T03:57:24;9.27;;;2.30;;
30539;SDS011;17321;46.312;4.776;2023-08-06T03:59:50;11.20;;;2.38;;
30539;SDS011;17321;46.312;4.776;2023-08-06T04:02:16;11.20;;;2.45;;
30539;SDS011;17321;46.312;4.776;2023-08-06T04:04:42;9.20;;;2.58;;
30539;SDS011;17321;46.312;4.776;2023-08-06T04:07:08;9.95;;;2.33;;
30539;SDS011;17321;46.312;4.776;2023-08-06T04:09:35;7.55;;;1.95;;
30539;SDS011;17321;46.312;4.776;2023-08-06T04:12:16;13.35;;;2.92;;
30539;SDS011;17321;46.312;4.776;2023-08-06T04:14:42;7.05;;;1.92;;
30539;SDS011;17321;46.312;4.776;2023-08-06T04:17:08;5.70;;;1.90;;
30539;SDS011;17321;46.312;4.776;2023-08-06T04:19:34;12.77;;;2.25;;
30539;SDS011;17321;46.312;4.776;2023-08-06T04:22:00;9.20;;;2.38;;
30539;SDS011;17321;46.312;4.776;2023-08-06T04:24:26;14.73;;;2.45;;
30539;SDS011;17321;46.312;4.776;2023-08-06T04:26:53;10.35;;;2.20;;
30539;SDS011;17321;46.312;4.776;2023-08-06T04:29:19;7.40;;;2.17;;
30539;SDS011;17321;46.312;4.776;2023-08-06T04:31:45;7.30;;;1.92;;
30539;SDS011;17321;46.312;4.776;2023-08-06T04:34:11;8.85;;;1.65;;
30539;SDS011;17321;46.312;4.776;2023-08-06T04:36:37;4.80;;;1.50;;
30539;SDS011;17321;46.312;4.776;2023-08-06T04:39:04;6.63;;;2.08;;
30539;SDS011;17321;46.312;4.776;2023-08-06T04:41:30;8.07;;;1.70;;
30539;SDS011;17321;46.312;4.776;2023-08-06T04:43:56;7.05;;;2.05;;
30539;SDS011;17321;46.312;4.776;2023-08-06T04:46:22;6.90;;;1.85;;
30539;SDS011;17321;46.312;4.776;2023-08-06T04:48:48;11.35;;;2.15;;
30539;SDS011;17321;46.312;4.776;2023-08-06T04:51:15;8.07;;;1.85;;
30539;SDS011;17321;46.312;4.776;2023-08-06T04:53:41;6.10;;;1.60;;
30539;SDS011;17321;46.312;4.776;2023-08-06T04:56:07;11.50;;;2.53;;
30539;SDS011;17321;46.312;4.776;2023-08-06T04:58:33;5.68;;;1.55;;
30539;SDS011;17321;46.312;4.776;2023-08-06T05:00:59;16.13;;;2.33;;
30539;SDS011;17321;46.312;4.776;2023-08-06T05:03:25;7.32;;;1.80;;
30539;SDS011;17321;46.312;4.776;2023-08-06T05:05:51;8.35;;;1.90;;
30539;SDS011;17321;46.312;4.776;2023-08-06T05:08:17;8.55;;;2.72;;
30539;SDS011;17321;46.312;4.776;2023-08-06T05:10:46;9.35;;;1.88;;
30539;SDS011;17321;46.312;4.776;2023-08-06T05:13:13;7.28;;;2.03;;
30539;SDS011;17321;46.312;4.776;2023-08-06T05:15:39;6.82;;;2.15;;
30539;SDS011;17321;46.312;4.776;2023-08-06T05:18:07;11.57;;;2.30;;
30539;SDS011;17321;46.312;4.776;2023-08-06T05:20:37;8.07;;;2.08;;
30539;SDS011;17321;46.312;4.776;2023-08-06T05:23:03;9.07;;;2.35;;
30539;SDS011;17321;46.312;4.776;2023-08-06T05:25:29;9.38;;;2.45;;
30539;SDS011;17321;46.312;4.776;2023-08-06T05:27:55;8.02;;;2.45;;
30539;SDS011;17321;46.312;4.776;2023-08-06T05:30:22;12.30;;;2.08;;
30539;SDS011;17321;46.312;4.776;2023-08-06T05:32:48;7.90;;;2.10;;
30539;SDS011;17321;46.312;4.776;2023-08-06T05:35:14;6.65;;;1.65;;
30539;SDS011;17321;46.312;4.776;2023-08-06T05:37:40;4.30;;;1.02;;
30539;SDS011;17321;46.312;4.776;2023-08-06T05:40:06;6.80;;;1.67;;
30539;SDS011;17321;46.312;4.776;2023-08-06T05:42:33;7.90;;;2.10;;
30539;SDS011;17321;46.312;4.776;2023-08-06T05:44:59;6.43;;;1.80;;
30539;SDS011;17321;46.312;4.776;2023-08-06T05:47:25;5.90;;;1.65;;
30539;SDS011;17321;46.312;4.776;2023-08-06T05:49:51;6.82;;;1.65;;
30539;SDS011;17321;46.312;4.776;2023-08-06T05:52:17;4.45;;;1.50;;
30539;SDS011;17321;46.312;4.776;2023-08-06T05:54:43;6.63;;;2.10;;
30539;SDS011;17321;46.312;4.776;2023-08-06T05:57:09;4.28;;;1.40;;
30539;SDS011;17321;46.312;4.776;2023-08-06T05:59:35;5.47;;;1.60;;
30539;SDS011;17321;46.312;4.776;2023-08-06T06:02:01;8.20;;;2.55;;
30539;SDS011;17321;46.312;4.776;2023-08-06T06:04:27;8.45;;;1.90;;
30539;SDS011;17321;46.312;4.776;2023-08-06T06:06:54;7.38;;;1.77;;
30539;SDS011;17321;46.312;4.776;2023-08-06T06:09:20;3.78;;;1.38;;
30539;SDS011;17321;46.312;4.776;2023-08-06T06:11:46;10.55;;;1.67;;
30539;SDS011;17321;46.312;4.776;2023-08-06T06:14:14;7.00;;;1.40;;
30539;SDS011;17321;46.312;4.776;2023-08-06T06:16:40;5.45;;;1.83;;
30539;SDS011;17321;46.312;4.776;2023-08-06T06:19:06;4.93;;;1.80;;
30539;SDS011;17321;46.312;4.776;2023-08-06T06:21:32;5.30;;;1.02;;
30539;SDS011;17321;46.312;4.776;2023-08-06T06:24:00;7.43;;;2.08;;
30539;SDS011;17321;46.312;4.776;2023-08-06T06:26:26;6.55;;;1.52;;
30539;SDS011;17321;46.312;4.776;2023-08-06T06:28:53;5.28;;;1.67;;
30539;SDS011;17321;46.312;4.776;2023-08-06T06:31:19;5.28;;;1.38;;
30539;SDS011;17321;46.312;4.776;2023-08-06T06:33:45;3.33;;;0.90;;
30539;SDS011;17321;46.312;4.776;2023-08-06T06:36:11;7.43;;;1.00;;
30539;SDS011;17321;46.312;4.776;2023-08-06T06:38:37;5.43;;;1.10;;
30539;SDS011;17321;46.312;4.776;2023-08-06T06:41:04;4.00;;;1.10;;
30539;SDS011;17321;46.312;4.776;2023-08-06T06:43:30;3.92;;;1.33;;
30539;SDS011;17321;46.312;4.776;2023-08-06T06:45:56;3.35;;;0.90;;
30539;SDS011;17321;46.312;4.776;2023-08-06T06:48:23;4.95;;;1.45;;
30539;SDS011;17321;46.312;4.776;2023-08-06T06:50:49;3.80;;;1.08;;
30539;SDS011;17321;46.312;4.776;2023-08-06T06:53:15;2.10;;;0.75;;
30539;SDS011;17321;46.312;4.776;2023-08-06T06:55:41;4.97;;;1.20;;
30539;SDS011;17321;46.312;4.776;2023-08-06T06:58:08;7.90;;;1.45;;
30539;SDS011;17321;46.312;4.776;2023-08-06T07:00:35;7.22;;;1.15;;
30539;SDS011;17321;46.312;4.776;2023-08-06T07:03:02;5.43;;;1.75;;
30539;SDS011;17321;46.312;4.776;2023-08-06T07:05:28;5.70;;;1.83;;
30539;SDS011;17321;46.312;4.776;2023-08-06T07:07:54;2.00;;;1.10;;
30539;SDS011;17321;46.312;4.776;2023-08-06T07:10:20;6.05;;;1.27;;
30539;SDS011;17321;46.312;4.776;2023-08-06T07:12:46;10.70;;;1.80;;
30539;SDS011;17321;46.312;4.776;2023-08-06T07:15:12;3.63;;;1.40;;
30539;SDS011;17321;46.312;4.776;2023-08-06T07:17:39;7.30;;;1.50;;
30539;SDS011;17321;46.312;4.776;2023-08-06T07:20:05;5.90;;;1.85;;
30539;SDS011;17321;46.312;4.776;2023-08-06T07:22:31;7.15;;;1.90;;
30539;SDS011;17321;46.312;4.776;2023-08-06T07:24:58;6.53;;;1.80;;
30539;SDS011;17321;46.312;4.776;2023-08-06T07:27:24;7.03;;;2.35;;
30539;SDS011;17321;46.312;4.776;2023-08-06T07:29:51;7.05;;;1.88;;
30539;SDS011;17321;46.312;4.776;2023-08-06T07:32:17;7.30;;;2.17;;
30539;SDS011;17321;46.312;4.776;2023-08-06T07:34:43;12.68;;;2.28;;
30539;SDS011;17321;46.312;4.776;2023-08-06T07:37:09;9.88;;;2.50;;
30539;SDS011;17321;46.312;4.776;2023-08-06T07:39:35;13.55;;;2.78;;
30539;SDS011;17321;46.312;4.776;2023-08-06T07:42:03;6.72;;;2.30;;
30539;SDS011;17321;46.312;4.776;2023-08-06T07:44:31;16.42;;;2.60;;
30539;SDS011;17321;46.312;4.776;2023-08-06T07:46:57;13.25;;;2.38;;
30539;SDS011;17321;46.312;4.776;2023-08-06T07:49:23;10.52;;;2.35;;
30539;SDS011;17321;46.312;4.776;2023-08-06T07:51:49;9.85;;;2.38;;
30539;SDS011;17321;46.312;4.776;2023-08-06T07:54:17;11.98;;;2.40;;
30539;SDS011;17321;46.312;4.776;2023-08-06T07:56:43;11.18;;;2.55;;
30539;SDS011;17321;46.312;4.776;2023-08-06T07:59:09;8.85;;;2.65;;
30539;SDS011;17321;46.312;4.776;2023-08-06T08:01:35;8.70;;;2.13;;
30539;SDS011;17321;46.312;4.776;2023-08-06T08:04:01;10.07;;;2.15;;
30539;SDS011;17321;46.312;4.776;2023-08-06T08:06:27;9.85;;;2.25;;
30539;SDS011;17321;46.312;4.776;2023-08-06T08:08:53;7.28;;;1.85;;
30539;SDS011;17321;46.312;4.776;2023-08-06T08:11:20;8.75;;;2.40;;
30539;SDS011;17321;46.312;4.776;2023-08-06T08:13:46;9.50;;;2.67;;
30539;SDS011;17321;46.312;4.776;2023-08-06T08:16:12;8.15;;;2.08;;
30539;SDS011;17321;46.312;4.776;2023-08-06T08:18:38;10.98;;;2.33;;
30539;SDS011;17321;46.312;4.776;2023-08-06T08:21:04;10.07;;;2.15;;
30539;SDS011;17321;46.312;4.776;2023-08-06T08:23:30;7.85;;;2.63;;
30539;SDS011;17321;46.312;4.776;2023-08-06T08:25:57;8.18;;;2.20;;
30539;SDS011;17321;46.312;4.776;2023-08-06T08:28:23;13.10;;;2.60;;
30539;SDS011;17321;46.312;4.776;2023-08-06T08:30:49;14.93;;;3.03;;
30539;SDS011;17321;46.312;4.776;2023-08-06T08:33:15;7.88;;;1.88;;
30539;SDS011;17321;46.312;4.776;2023-08-06T08:35:41;8.25;;;2.13;;
30539;SDS011;17321;46.312;4.776;2023-08-06T08:38:07;10.55;;;2.10;;
30539;SDS011;17321;46.312;4.776;2023-08-06T08:40:33;6.72;;;2.50;;
30539;SDS011;17321;46.312;4.776;2023-08-06T08:43:02;11.68;;;2.28;;
30539;SDS011;17321;46.312;4.776;2023-08-06T08:45:29;9.50;;;2.60;;
30539;SDS011;17321;46.312;4.776;2023-08-06T08:47:56;8.30;;;2.97;;
30539;SDS011;17321;46.312;4.776;2023-08-06T08:50:22;8.48;;;2.22;;
30539;SDS011;17321;46.312;4.776;2023-08-06T08:52:48;7.00;;;2.38;;
30539;SDS011;17321;46.312;4.776;2023-08-06T08:55:16;5.60;;;1.98;;
30539;SDS011;17321;46.312;4.776;2023-08-06T08:57:42;11.38;;;2.72;;
30539;SDS011;17321;46.312;4.776;2023-08-06T09:00:09;8.82;;;2.38;;
30539;SDS011;17321;46.312;4.776;2023-08-06T09:02:35;7.75;;;2.60;;
30539;SDS011;17321;46.312;4.776;2023-08-06T09:05:03;8.25;;;2.00;;
30539;SDS011;17321;46.312;4.776;2023-08-06T09:07:32;7.07;;;2.42;;
30539;SDS011;17321;46.312;4.776;2023-08-06T09:10:00;8.43;;;2.92;;
30539;SDS011;17321;46.312;4.776;2023-08-06T09:12:28;9.48;;;2.42;;
30539;SDS011;17321;46.312;4.776;2023-08-06T09:14:54;9.70;;;2.38;;
30539;SDS011;17321;46.312;4.776;2023-08-06T09:17:21;8.30;;;1.92;;
30539;SDS011;17321;46.312;4.776;2023-08-06T09:19:47;9.15;;;2.38;;
30539;SDS011;17321;46.312;4.776;2023-08-06T09:22:14;5.80;;;2.20;;
30539;SDS011;17321;46.312;4.776;2023-08-06T09:24:41;7.65;;;2.15;;
30539;SDS011;17321;46.312;4.776;2023-08-06T09:27:11;5.80;;;1.90;;
30539;SDS011;17321;46.312;4.776;2023-08-06T09:29:45;10.40;;;2.50;;
30539;SDS011;17321;46.312;4.776;2023-08-06T09:32:11;6.88;;;2.20;;
30539;SDS011;17321;46.312;4.776;2023-08-06T09:34:45;6.35;;;2.50;;
30539;SDS011;17321;46.312;4.776;2023-08-06T09:37:11;7.93;;;2.20;;
30539;SDS011;17321;46.312;4.776;2023-08-06T09:39:38;10.40;;;2.50;;
30539;SDS011;17321;46.312;4.776;2023-08-06T09:42:05;6.18;;;2.17;;
30539;SDS011;17321;46.312;4.776;2023-08-06T09:44:31;10.77;;;2.95;;
30539;SDS011;17321;46.312;4.776;2023-08-06T09:46:58;9.30;;;2.72;;
30539;SDS011;17321;46.312;4.776;2023-08-06T09:49:28;5.70;;;2.28;;
30539;SDS011;17321;46.312;4.776;2023-08-06T09:51:54;11.70;;;2.80;;
30539;SDS011;17321;46.312;4.776;2023-08-06T09:54:25;5.43;;;2.13;;
30539;SDS011;17321;46.312;4.776;2023-08-06T09:56:55;7.90;;;2.80;;
30539;SDS011;17321;46.312;4.776;2023-08-06T09:59:24;5.95;;;1.83;;
30539;SDS011;17321;46.312;4.776;2023-08-06T10:01:51;8.13;;;2.53;;
30539;SDS011;17321;46.312;4.776;2023-08-06T10:04:17;8.18;;;2.20;;
30539;SDS011;17321;46.312;4.776;2023-08-06T10:06:45;9.10;;;1.80;;
30539;SDS011;17321;46.312;4.776;2023-08-06T10:09:13;6.90;;;2.30;;
30539;SDS011;17321;46.312;4.776;2023-08-06T10:11:39;9.75;;;2.40;;
30539;SDS011;17321;46.312;4.776;2023-08-06T10:14:13;14.90;;;2.33;;
30539;SDS011;17321;46.312;4.776;2023-08-06T10:16:40;6.72;;;3.08;;
30539;SDS011;17321;46.312;4.776;2023-08-06T10:19:07;6.10;;;2.28;;
30539;SDS011;17321;46.312;4.776;2023-08-06T10:21:34;6.35;;;2.17;;
30539;SDS011;17321;46.312;4.776;2023-08-06T10:24:00;8.23;;;2.65;;
30539;SDS011;17321;46.312;4.776;2023-08-06T10:26:28;9.32;;;3.00;;
30539;SDS011;17321;46.312;4.776;2023-08-06T10:28:55;5.93;;;1.73;;
30539;SDS011;17321;46.312;4.776;2023-08-06T10:34:06;9.65;;;3.03;;
30539;SDS011;17321;46.312;4.776;2023-08-06T10:36:33;9.10;;;2.50;;
30539;SDS011;17321;46.312;4.776;2023-08-06T10:38:59;6.10;;;2.42;;
30539;SDS011;17321;46.312;4.776;2023-08-06T10:41:28;6.25;;;2.55;;
30539;SDS011;17321;46.312;4.776;2023-08-06T10:44:16;9.13;;;2.33;;
30539;SDS011;17321;46.312;4.776;2023-08-06T10:46:41;6.65;;;2.25;;
30539;SDS011;17321;46.312;4.776;2023-08-06T10:49:07;53.95;;;20.05;;
30539;SDS011;17321;46.312;4.776;2023-08-06T10:51:34;60.42;;;22.83;;
30539;SDS011;17321;46.312;4.776;2023-08-06T10:54:00;11.73;;;3.42;;
30539;SDS011;17321;46.312;4.776;2023-08-06T10:56:26;15.00;;;5.50;;
30539;SDS011;17321;46.312;4.776;2023-08-06T10:58:55;21.85;;;8.30;;
30539;SDS011;17321;46.312;4.776;2023-08-06T11:01:22;5.60;;;2.28;;
30539;SDS011;17321;46.312;4.776;2023-08-06T11:03:48;7.80;;;2.17;;
30539;SDS011;17321;46.312;4.776;2023-08-06T11:06:18;5.82;;;2.03;;
30539;SDS011;17321;46.312;4.776;2023-08-06T11:08:51;12.20;;;3.67;;
30539;SDS011;17321;46.312;4.776;2023-08-06T11:11:21;6.05;;;2.00;;
30539;SDS011;17321;46.312;4.776;2023-08-06T11:13:48;5.00;;;2.25;;
30539;SDS011;17321;46.312;4.776;2023-08-06T11:16:19;6.28;;;2.13;;
30539;SDS011;17321;46.312;4.776;2023-08-06T11:18:46;7.38;;;1.95;;
30539;SDS011;17321;46.312;4.776;2023-08-06T11:21:12;6.07;;;2.35;;
30539;SDS011;17321;46.312;4.776;2023-08-06T11:23:39;5.28;;;2.17;;
30539;SDS011;17321;46.312;4.776;2023-08-06T11:26:06;14.27;;;7.45;;
30539;SDS011;17321;46.312;4.776;2023-08-06T11:28:33;5.43;;;2.30;;
30539;SDS011;17321;46.312;4.776;2023-08-06T11:30:59;14.00;;;4.85;;
30539;SDS011;17321;46.312;4.776;2023-08-06T11:33:27;8.43;;;3.28;;
30539;SDS011;17321;46.312;4.776;2023-08-06T11:35:57;6.15;;;2.88;;
30539;SDS011;17321;46.312;4.776;2023-08-06T11:38:29;8.48;;;2.08;;
30539;SDS011;17321;46.312;4.776;2023-08-06T11:40:56;5.55;;;2.03;;
30539;SDS011;17321;46.312;4.776;2023-08-06T11:43:22;7.47;;;2.60;;
30539;SDS011;17321;46.312;4.776;2023-08-06T11:45:49;8.13;;;2.28;;
30539;SDS011;17321;46.312;4.776;2023-08-06T11:48:15;8.57;;;2.53;;
30539;SDS011;17321;46.312;4.776;2023-08-06T11:50:43;7.00;;;2.60;;
30539;SDS011;17321;46.312;4.776;2023-08-06T11:53:11;8.60;;;2.85;;
30539;SDS011;17321;46.312;4.776;2023-08-06T11:55:37;10.73;;;2.50;;
30539;SDS011;17321;46.312;4.776;2023-08-06T11:58:03;7.22;;;2.08;;
30539;SDS011;17321;46.312;4.776;2023-08-06T12:00:30;5.57;;;2.05;;
30539;SDS011;17321;46.312;4.776;2023-08-06T12:02:56;11.85;;;4.82;;
30539;SDS011;17321;46.312;4.776;2023-08-06T12:05:23;5.95;;;1.98;;
30539;SDS011;17321;46.312;4.776;2023-08-06T12:07:50;6.13;;;3.10;;
30539;SDS011;17321;46.312;4.776;2023-08-06T12:10:17;10.52;;;3.35;;
30539;SDS011;17321;46.312;4.776;2023-08-06T12:12:47;7.05;;;2.53;;
30539;SDS011;17321;46.312;4.776;2023-08-06T12:15:13;7.20;;;1.98;;
30539;SDS011;17321;46.312;4.776;2023-08-06T12:17:39;4.72;;;1.75;;
30539;SDS011;17321;46.312;4.776;2023-08-06T12:20:06;9.85;;;2.90;;
30539;SDS011;17321;46.312;4.776;2023-08-06T12:22:35;7.60;;;2.95;;
30539;SDS011;17321;46.312;4.776;2023-08-06T12:25:02;6.30;;;2.28;;
30539;SDS011;17321;46.312;4.776;2023-08-06T12:27:31;3.72;;;1.67;;
30539;SDS011;17321;46.312;4.776;2023-08-06T12:29:57;5.30;;;1.83;;
30539;SDS011;17321;46.312;4.776;2023-08-06T12:32:24;9.23;;;3.65;;
30539;SDS011;17321;46.312;4.776;2023-08-06T12:34:50;3.15;;;1.77;;
30539;SDS011;17321;46.312;4.776;2023-08-06T12:37:16;2.92;;;1.60;;
30539;SDS011;17321;46.312;4.776;2023-08-06T12:39:42;5.35;;;1.92;;
30539;SDS011;17321;46.312;4.776;2023-08-06T12:42:08;5.45;;;1.90;;
30539;SDS011;17321;46.312;4.776;2023-08-06T12:44:35;6.57;;;2.20;;
30539;SDS011;17321;46.312;4.776;2023-08-06T12:47:01;6.30;;;3.78;;
30539;SDS011;17321;46.312;4.776;2023-08-06T12:49:27;9.38;;;5.13;;
30539;SDS011;17321;46.312;4.776;2023-08-06T12:51:54;8.88;;;4.07;;
30539;SDS011;17321;46.312;4.776;2023-08-06T12:54:25;6.80;;;1.95;;
30539;SDS011;17321;46.312;4.776;2023-08-06T12:56:51;3.97;;;1.88;;
30539;SDS011;17321;46.312;4.776;2023-08-06T12:59:17;6.93;;;1.60;;
30539;SDS011;17321;46.312;4.776;2023-08-06T13:01:44;6.07;;;1.80;;
30539;SDS011;17321;46.312;4.776;2023-08-06T13:04:10;2.63;;;1.60;;
30539;SDS011;17321;46.312;4.776;2023-08-06T13:06:37;5.22;;;1.40;;
30539;SDS011;17321;46.312;4.776;2023-08-06T13:09:07;7.43;;;1.75;;
30539;SDS011;17321;46.312;4.776;2023-08-06T13:11:34;4.05;;;1.50;;
30539;SDS011;17321;46.312;4.776;2023-08-06T13:14:04;7.72;;;1.80;;
30539;SDS011;17321;46.312;4.776;2023-08-06T13:16:30;4.57;;;1.40;;
30539;SDS011;17321;46.312;4.776;2023-08-06T13:18:56;3.25;;;1.38;;
30539;SDS011;17321;46.312;4.776;2023-08-06T13:21:23;4.43;;;1.38;;
30539;SDS011;17321;46.312;4.776;2023-08-06T13:23:49;3.78;;;1.38;;
30539;SDS011;17321;46.312;4.776;2023-08-06T13:26:15;5.25;;;1.65;;
30539;SDS011;17321;46.312;4.776;2023-08-06T13:28:41;4.63;;;1.60;;
30539;SDS011;17321;46.312;4.776;2023-08-06T13:31:08;3.13;;;1.35;;
30539;SDS011;17321;46.312;4.776;2023-08-06T13:33:34;2.95;;;1.40;;
30539;SDS011;17321;46.312;4.776;2023-08-06T13:36:00;3.28;;;1.42;;
30539;SDS011;17321;46.312;4.776;2023-08-06T13:38:26;1.80;;;0.95;;
30539;SDS011;17321;46.312;4.776;2023-08-06T13:40:52;1.98;;;0.88;;
30539;SDS011;17321;46.312;4.776;2023-08-06T13:43:18;4.03;;;1.40;;
30539;SDS011;17321;46.312;4.776;2023-08-06T13:45:44;4.22;;;1.48;;
30539;SDS011;17321;46.312;4.776;2023-08-06T13:48:10;3.67;;;1.30;;
30539;SDS011;17321;46.312;4.776;2023-08-06T13:50:36;4.07;;;1.40;;
30539;SDS011;17321;46.312;4.776;2023-08-06T13:53:03;4.00;;;1.25;;
30539;SDS011;17321;46.312;4.776;2023-08-06T13:55:29;3.83;;;1.58;;
30539;SDS011;17321;46.312;4.776;2023-08-06T13:57:55;4.93;;;1.52;;
30539;SDS011;17321;46.312;4.776;2023-08-06T14:00:21;4.90;;;1.30;;
30539;SDS011;17321;46.312;4.776;2023-08-06T14:02:48;2.00;;;1.17;;
30539;SDS011;17321;46.312;4.776;2023-08-06T14:05:14;2.58;;;1.25;;
30539;SDS011;17321;46.312;4.776;2023-08-06T14:07:40;3.83;;;1.10;;
30539;SDS011;17321;46.312;4.776;2023-08-06T14:10:06;2.22;;;1.00;;
30539;SDS011;17321;46.312;4.776;2023-08-06T14:12:34;2.67;;;1.20;;
30539;SDS011;17321;46.312;4.776;2023-08-06T14:15:00;2.47;;;1.08;;
30539;SDS011;17321;46.312;4.776;2023-08-06T14:17:28;1.73;;;1.10;;
30539;SDS011;17321;46.312;4.776;2023-08-06T14:19:54;2.95;;;1.10;;
30539;SDS011;17321;46.312;4.776;2023-08-06T14:22:21;3.15;;;1.00;;
30539;SDS011;17321;46.312;4.776;2023-08-06T14:24:47;4.60;;;1.10;;
30539;SDS011;17321;46.312;4.776;2023-08-06T14:27:13;3.85;;;1.17;;
30539;SDS011;17321;46.312;4.776;2023-08-06T14:29:39;4.30;;;1.30;;
30539;SDS011;17321;46.312;4.776;2023-08-06T14:32:05;4.65;;;1.40;;
30539;SDS011;17321;46.312;4.776;2023-08-06T14:34:32;3.03;;;1.30;;
30539;SDS011;17321;46.312;4.776;2023-08-06T14:36:58;2.53;;;1.08;;
30539;SDS011;17321;46.312;4.776;2023-08-06T14:39:24;3.90;;;1.40;;
30539;SDS011;17321;46.312;4.776;2023-08-06T14:41:50;2.70;;;1.35;;
30539;SDS011;17321;46.312;4.776;2023-08-06T14:44:16;5.50;;;1.30;;
30539;SDS011;17321;46.312;4.776;2023-08-06T14:46:42;2.55;;;0.80;;
30539;SDS011;17321;46.312;4.776;2023-08-06T14:49:08;2.70;;;1.00;;